Palmyra, Syria
Current Conditions -  °F | °C
As of 10:00 PM on Monday 22 Dec 2014 (Local Time) from OSDI Reporting Station
Few Clouds Few Clouds  
Wind Chill: 43°   Ceiling: Unl
Heat Index: 46°   Visibility: 6mi
Dew Point: 43°   Wind: 7mph
Humidity: 87%   Direction: 240°WSW
Pressure: 29.97"   Gusts: NA
Location:  34.55°N, 38.28°E
Report Text: OSDI 221900Z 24006KT 9999 FEW030 08/06 Q1015
Loading
Personal Weather Stations






























Interactive Weather Map New forecast layout! Learn more

10-Day Weather Forecast

Advertisements
Track Severe Weather on mobile